Weather at Charles de Gaulle International Airport

Public forecast

Using degrees Celsius for public forecast. Weather courtesy of forecast.io.

Current aviation weather report (METAR) for Charles de Gaulle International Airport

Retrieved 2021/04/11 10:00 UTC (1 minute ago):

LFPG 111000Z 01016KT 9999 FEW016 BKN018 BKN027 05/02 Q1014 NOSIG

Aviation forecast (TAF) for Charles de Gaulle International Airport

Retrieved 2021/04/11 06:52 UTC (3 hours ago):

TAF LFPG 110500Z 1106/1212 36012KT 7000 BKN007 TX11/1212Z TN00/1205Z TEMPO 1106/1109 4000 -DZ BKN004 BECMG 1107/1109 BKN015 TEMPO 1113/1117 4000 -SHRA SCT020TCU BECMG 1118/1120 CAVOK BECMG 1201/1203 27003KT TEMPO 1208/1212 SCT012TCU